sensor_id;sensor_type;location;lat;lon;timestamp;temperature;humidity
32446;DHT22;18899;50.748;7.102;2023-03-05T00:01:47;7.10;99.90
32446;DHT22;18899;50.748;7.102;2023-03-05T00:04:14;6.90;99.90
32446;DHT22;18899;50.748;7.102;2023-03-05T00:06:39;7.00;99.90
32446;DHT22;18899;50.748;7.102;2023-03-05T00:09:05;7.00;99.90
32446;DHT22;18899;50.748;7.102;2023-03-05T00:11:31;7.10;99.90
32446;DHT22;18899;50.748;7.102;2023-03-05T00:13:58;7.10;99.90
32446;DHT22;18899;50.748;7.102;2023-03-05T00:16:25;7.10;99.90
32446;DHT22;18899;50.748;7.102;2023-03-05T00:18:52;7.10;99.90
32446;DHT22;18899;50.748;7.102;2023-03-05T00:21:21;7.10;99.90
32446;DHT22;18899;50.748;7.102;2023-03-05T00:23:47;7.20;99.90
32446;DHT22;18899;50.748;7.102;2023-03-05T00:26:15;7.10;99.90
32446;DHT22;18899;50.748;7.102;2023-03-05T00:28:41;6.90;99.90
32446;DHT22;18899;50.748;7.102;2023-03-05T00:31:06;6.90;99.90
32446;DHT22;18899;50.748;7.102;2023-03-05T00:33:32;6.70;99.90
32446;DHT22;18899;50.748;7.102;2023-03-05T00:35:57;7.00;99.90
32446;DHT22;18899;50.748;7.102;2023-03-05T00:38:26;7.00;99.90
32446;DHT22;18899;50.748;7.102;2023-03-05T00:40:51;7.00;99.90
32446;DHT22;18899;50.748;7.102;2023-03-05T00:43:17;6.80;99.90
32446;DHT22;18899;50.748;7.102;2023-03-05T00:45:42;6.90;99.90
32446;DHT22;18899;50.748;7.102;2023-03-05T00:48:08;6.90;99.90
32446;DHT22;18899;50.748;7.102;2023-03-05T00:50:33;6.90;99.90
32446;DHT22;18899;50.748;7.102;2023-03-05T00:52:59;6.80;99.90
32446;DHT22;18899;50.748;7.102;2023-03-05T00:55:24;6.70;99.90
32446;DHT22;18899;50.748;7.102;2023-03-05T00:57:50;6.70;99.90
32446;DHT22;18899;50.748;7.102;2023-03-05T01:00:16;6.70;99.90
32446;DHT22;18899;50.748;7.102;2023-03-05T01:02:42;6.70;99.90
32446;DHT22;18899;50.748;7.102;2023-03-05T01:05:11;6.50;99.90
32446;DHT22;18899;50.748;7.102;2023-03-05T01:07:37;6.70;99.90
32446;DHT22;18899;50.748;7.102;2023-03-05T01:10:03;6.70;99.90
32446;DHT22;18899;50.748;7.102;2023-03-05T01:12:28;6.80;99.90
32446;DHT22;18899;50.748;7.102;2023-03-05T01:14:54;6.70;99.90
32446;DHT22;18899;50.748;7.102;2023-03-05T01:17:19;6.70;99.90
32446;DHT22;18899;50.748;7.102;2023-03-05T01:19:45;6.60;99.90
32446;DHT22;18899;50.748;7.102;2023-03-05T01:22:10;6.70;99.90
32446;DHT22;18899;50.748;7.102;2023-03-05T01:24:36;6.80;99.90
32446;DHT22;18899;50.748;7.102;2023-03-05T01:27:01;6.80;99.90
32446;DHT22;18899;50.748;7.102;2023-03-05T01:29:27;6.70;99.90
32446;DHT22;18899;50.748;7.102;2023-03-05T01:31:53;6.80;99.90
32446;DHT22;18899;50.748;7.102;2023-03-05T01:34:18;6.80;99.90
32446;DHT22;18899;50.748;7.102;2023-03-05T01:36:45;6.70;99.90
32446;DHT22;18899;50.748;7.102;2023-03-05T01:39:11;6.60;99.90
32446;DHT22;18899;50.748;7.102;2023-03-05T01:41:37;6.60;99.90
32446;DHT22;18899;50.748;7.102;2023-03-05T01:44:03;6.50;99.90
32446;DHT22;18899;50.748;7.102;2023-03-05T01:46:36;6.40;99.90
32446;DHT22;18899;50.748;7.102;2023-03-05T01:51:57;6.50;99.90
32446;DHT22;18899;50.748;7.102;2023-03-05T01:54:28;6.70;99.90
32446;DHT22;18899;50.748;7.102;2023-03-05T01:56:57;6.70;99.90
32446;DHT22;18899;50.748;7.102;2023-03-05T01:59:24;6.70;99.90
32446;DHT22;18899;50.748;7.102;2023-03-05T02:01:53;6.60;99.90
32446;DHT22;18899;50.748;7.102;2023-03-05T02:04:20;6.60;99.90
32446;DHT22;18899;50.748;7.102;2023-03-05T02:06:48;6.40;99.90
32446;DHT22;18899;50.748;7.102;2023-03-05T02:09:14;6.50;99.90
32446;DHT22;18899;50.748;7.102;2023-03-05T02:11:40;6.60;99.90
32446;DHT22;18899;50.748;7.102;2023-03-05T02:14:07;6.50;99.90
32446;DHT22;18899;50.748;7.102;2023-03-05T02:16:33;6.50;99.90
32446;DHT22;18899;50.748;7.102;2023-03-05T02:19:11;6.40;99.90
32446;DHT22;18899;50.748;7.102;2023-03-05T02:21:47;6.30;99.90
32446;DHT22;18899;50.748;7.102;2023-03-05T02:24:15;6.30;99.90
32446;DHT22;18899;50.748;7.102;2023-03-05T02:26:42;6.10;99.90
32446;DHT22;18899;50.748;7.102;2023-03-05T02:29:11;6.00;99.90
32446;DHT22;18899;50.748;7.102;2023-03-05T02:31:37;6.10;99.90
32446;DHT22;18899;50.748;7.102;2023-03-05T02:34:03;6.10;99.90
32446;DHT22;18899;50.748;7.102;2023-03-05T02:36:29;6.10;99.90
32446;DHT22;18899;50.748;7.102;2023-03-05T02:38:55;6.20;99.90
32446;DHT22;18899;50.748;7.102;2023-03-05T02:41:22;6.10;99.90
32446;DHT22;18899;50.748;7.102;2023-03-05T02:43:48;6.40;99.90
32446;DHT22;18899;50.748;7.102;2023-03-05T02:46:13;6.30;99.90
32446;DHT22;18899;50.748;7.102;2023-03-05T02:48:39;6.30;99.90
32446;DHT22;18899;50.748;7.102;2023-03-05T02:51:06;6.30;99.90
32446;DHT22;18899;50.748;7.102;2023-03-05T02:53:32;6.10;99.90
32446;DHT22;18899;50.748;7.102;2023-03-05T02:55:57;6.10;99.90
32446;DHT22;18899;50.748;7.102;2023-03-05T02:58:23;6.10;99.90
32446;DHT22;18899;50.748;7.102;2023-03-05T03:00:49;6.00;99.90
32446;DHT22;18899;50.748;7.102;2023-03-05T03:03:14;6.00;99.90
32446;DHT22;18899;50.748;7.102;2023-03-05T03:05:40;6.00;99.90
32446;DHT22;18899;50.748;7.102;2023-03-05T03:08:06;6.00;99.90
32446;DHT22;18899;50.748;7.102;2023-03-05T03:10:32;6.00;99.90
32446;DHT22;18899;50.748;7.102;2023-03-05T03:12:57;6.00;99.90
32446;DHT22;18899;50.748;7.102;2023-03-05T03:15:23;6.10;99.90
32446;DHT22;18899;50.748;7.102;2023-03-05T03:17:49;6.30;99.90
32446;DHT22;18899;50.748;7.102;2023-03-05T03:20:16;6.20;99.90
32446;DHT22;18899;50.748;7.102;2023-03-05T03:22:44;6.10;99.90
32446;DHT22;18899;50.748;7.102;2023-03-05T03:25:13;6.10;99.90
32446;DHT22;18899;50.748;7.102;2023-03-05T03:27:38;6.20;99.90
32446;DHT22;18899;50.748;7.102;2023-03-05T03:30:04;6.40;99.90
32446;DHT22;18899;50.748;7.102;2023-03-05T03:32:31;6.30;99.90
32446;DHT22;18899;50.748;7.102;2023-03-05T03:34:57;6.30;99.90
32446;DHT22;18899;50.748;7.102;2023-03-05T03:37:23;6.20;99.90
32446;DHT22;18899;50.748;7.102;2023-03-05T03:39:48;6.30;99.90
32446;DHT22;18899;50.748;7.102;2023-03-05T03:42:18;6.30;99.90
32446;DHT22;18899;50.748;7.102;2023-03-05T03:44:44;6.30;99.90
32446;DHT22;18899;50.748;7.102;2023-03-05T03:47:10;6.30;99.90
32446;DHT22;18899;50.748;7.102;2023-03-05T03:49:35;6.40;99.90
32446;DHT22;18899;50.748;7.102;2023-03-05T03:52:01;6.30;99.90
32446;DHT22;18899;50.748;7.102;2023-03-05T03:54:27;6.10;99.90
32446;DHT22;18899;50.748;7.102;2023-03-05T03:56:52;5.90;99.90
32446;DHT22;18899;50.748;7.102;2023-03-05T03:59:18;5.90;99.90
32446;DHT22;18899;50.748;7.102;2023-03-05T04:01:43;5.90;99.90
32446;DHT22;18899;50.748;7.102;2023-03-05T04:04:11;5.90;99.90
32446;DHT22;18899;50.748;7.102;2023-03-05T04:06:36;5.90;99.90
32446;DHT22;18899;50.748;7.102;2023-03-05T04:09:02;5.90;99.90
32446;DHT22;18899;50.748;7.102;2023-03-05T04:11:28;5.70;99.90
32446;DHT22;18899;50.748;7.102;2023-03-05T04:13:54;5.90;99.90
32446;DHT22;18899;50.748;7.102;2023-03-05T04:16:19;6.00;99.90
32446;DHT22;18899;50.748;7.102;2023-03-05T04:18:45;6.00;99.90
32446;DHT22;18899;50.748;7.102;2023-03-05T04:21:11;5.90;99.90
32446;DHT22;18899;50.748;7.102;2023-03-05T04:23:36;5.90;99.90
32446;DHT22;18899;50.748;7.102;2023-03-05T04:26:02;5.80;99.90
32446;DHT22;18899;50.748;7.102;2023-03-05T04:28:28;5.80;99.90
32446;DHT22;18899;50.748;7.102;2023-03-05T04:30:53;6.00;99.90
32446;DHT22;18899;50.748;7.102;2023-03-05T04:33:19;6.00;99.90
32446;DHT22;18899;50.748;7.102;2023-03-05T04:35:44;6.10;99.90
32446;DHT22;18899;50.748;7.102;2023-03-05T04:38:10;6.10;99.90
32446;DHT22;18899;50.748;7.102;2023-03-05T04:40:36;5.90;99.90
32446;DHT22;18899;50.748;7.102;2023-03-05T04:43:03;5.90;99.90
32446;DHT22;18899;50.748;7.102;2023-03-05T04:45:28;5.90;99.90
32446;DHT22;18899;50.748;7.102;2023-03-05T04:47:54;5.80;99.90
32446;DHT22;18899;50.748;7.102;2023-03-05T04:50:19;5.80;99.90
32446;DHT22;18899;50.748;7.102;2023-03-05T04:52:46;5.70;99.90
32446;DHT22;18899;50.748;7.102;2023-03-05T04:55:12;5.80;99.90
32446;DHT22;18899;50.748;7.102;2023-03-05T04:57:39;5.80;99.90
32446;DHT22;18899;50.748;7.102;2023-03-05T05:00:07;5.80;99.90
32446;DHT22;18899;50.748;7.102;2023-03-05T05:02:48;5.70;99.90
32446;DHT22;18899;50.748;7.102;2023-03-05T05:05:15;5.50;99.90
32446;DHT22;18899;50.748;7.102;2023-03-05T05:07:41;5.40;99.90
32446;DHT22;18899;50.748;7.102;2023-03-05T05:10:07;5.50;99.90
32446;DHT22;18899;50.748;7.102;2023-03-05T05:12:33;5.70;99.90
32446;DHT22;18899;50.748;7.102;2023-03-05T05:14:59;5.70;99.90
32446;DHT22;18899;50.748;7.102;2023-03-05T05:17:25;6.00;99.90
32446;DHT22;18899;50.748;7.102;2023-03-05T05:19:51;6.00;99.90
32446;DHT22;18899;50.748;7.102;2023-03-05T05:22:17;5.80;99.90
32446;DHT22;18899;50.748;7.102;2023-03-05T05:24:42;5.70;99.90
32446;DHT22;18899;50.748;7.102;2023-03-05T05:27:08;5.80;99.90
32446;DHT22;18899;50.748;7.102;2023-03-05T05:29:34;6.10;99.90
32446;DHT22;18899;50.748;7.102;2023-03-05T05:31:59;5.90;99.90
32446;DHT22;18899;50.748;7.102;2023-03-05T05:34:25;5.90;99.90
32446;DHT22;18899;50.748;7.102;2023-03-05T05:36:51;6.00;99.90
32446;DHT22;18899;50.748;7.102;2023-03-05T05:39:17;6.10;99.90
32446;DHT22;18899;50.748;7.102;2023-03-05T05:41:42;5.90;99.90
32446;DHT22;18899;50.748;7.102;2023-03-05T05:44:08;5.70;99.90
32446;DHT22;18899;50.748;7.102;2023-03-05T05:46:33;5.60;99.90
32446;DHT22;18899;50.748;7.102;2023-03-05T05:48:59;5.40;99.90
32446;DHT22;18899;50.748;7.102;2023-03-05T05:51:24;5.20;99.90
32446;DHT22;18899;50.748;7.102;2023-03-05T05:53:50;5.30;99.90
32446;DHT22;18899;50.748;7.102;2023-03-05T05:56:16;5.30;99.90
32446;DHT22;18899;50.748;7.102;2023-03-05T05:58:43;5.30;99.90
32446;DHT22;18899;50.748;7.102;2023-03-05T06:01:18;5.30;99.90
32446;DHT22;18899;50.748;7.102;2023-03-05T06:03:44;5.40;99.90
32446;DHT22;18899;50.748;7.102;2023-03-05T06:06:11;5.50;99.90
32446;DHT22;18899;50.748;7.102;2023-03-05T06:08:37;5.60;99.90
32446;DHT22;18899;50.748;7.102;2023-03-05T06:11:03;5.50;99.90
32446;DHT22;18899;50.748;7.102;2023-03-05T06:13:28;5.40;99.90
32446;DHT22;18899;50.748;7.102;2023-03-05T06:15:55;5.40;99.90
32446;DHT22;18899;50.748;7.102;2023-03-05T06:18:22;5.40;99.90
32446;DHT22;18899;50.748;7.102;2023-03-05T06:20:56;5.50;99.90
32446;DHT22;18899;50.748;7.102;2023-03-05T06:23:23;5.40;99.90
32446;DHT22;18899;50.748;7.102;2023-03-05T06:25:48;5.40;99.90
32446;DHT22;18899;50.748;7.102;2023-03-05T06:28:15;5.50;99.90
32446;DHT22;18899;50.748;7.102;2023-03-05T06:30:41;5.50;99.90
32446;DHT22;18899;50.748;7.102;2023-03-05T06:33:06;5.60;99.90
32446;DHT22;18899;50.748;7.102;2023-03-05T06:35:32;5.50;99.90
32446;DHT22;18899;50.748;7.102;2023-03-05T06:37:57;5.40;99.90
32446;DHT22;18899;50.748;7.102;2023-03-05T06:40:23;5.20;99.90
32446;DHT22;18899;50.748;7.102;2023-03-05T06:42:49;5.40;99.90
32446;DHT22;18899;50.748;7.102;2023-03-05T06:45:14;5.50;99.90
32446;DHT22;18899;50.748;7.102;2023-03-05T06:47:40;5.60;99.90
32446;DHT22;18899;50.748;7.102;2023-03-05T06:50:06;5.50;99.90
32446;DHT22;18899;50.748;7.102;2023-03-05T06:52:32;5.40;99.90
32446;DHT22;18899;50.748;7.102;2023-03-05T06:54:57;5.30;99.90
32446;DHT22;18899;50.748;7.102;2023-03-05T06:57:23;5.40;99.90
32446;DHT22;18899;50.748;7.102;2023-03-05T06:59:48;5.50;99.90
32446;DHT22;18899;50.748;7.102;2023-03-05T07:02:14;5.50;99.90
32446;DHT22;18899;50.748;7.102;2023-03-05T07:04:40;5.40;99.90
32446;DHT22;18899;50.748;7.102;2023-03-05T07:07:05;5.50;99.90
32446;DHT22;18899;50.748;7.102;2023-03-05T07:09:31;5.70;99.90
32446;DHT22;18899;50.748;7.102;2023-03-05T07:11:56;6.00;99.90
32446;DHT22;18899;50.748;7.102;2023-03-05T07:14:22;6.20;99.90
32446;DHT22;18899;50.748;7.102;2023-03-05T07:16:47;6.10;99.90
32446;DHT22;18899;50.748;7.102;2023-03-05T07:19:14;6.20;99.90
32446;DHT22;18899;50.748;7.102;2023-03-05T07:21:40;6.20;99.90
32446;DHT22;18899;50.748;7.102;2023-03-05T07:24:06;6.20;99.90
32446;DHT22;18899;50.748;7.102;2023-03-05T07:26:32;6.20;99.90
32446;DHT22;18899;50.748;7.102;2023-03-05T07:28:58;6.30;99.90
32446;DHT22;18899;50.748;7.102;2023-03-05T07:31:25;6.40;99.90
32446;DHT22;18899;50.748;7.102;2023-03-05T07:33:57;6.40;99.90
32446;DHT22;18899;50.748;7.102;2023-03-05T07:36:23;6.20;99.90
32446;DHT22;18899;50.748;7.102;2023-03-05T07:38:48;6.20;99.90
32446;DHT22;18899;50.748;7.102;2023-03-05T07:41:18;6.30;99.90
32446;DHT22;18899;50.748;7.102;2023-03-05T07:43:44;6.60;99.90
32446;DHT22;18899;50.748;7.102;2023-03-05T07:46:11;6.50;99.90
32446;DHT22;18899;50.748;7.102;2023-03-05T07:48:38;6.70;99.90
32446;DHT22;18899;50.748;7.102;2023-03-05T07:51:12;7.00;99.90
32446;DHT22;18899;50.748;7.102;2023-03-05T07:53:39;7.20;99.90
32446;DHT22;18899;50.748;7.102;2023-03-05T07:56:05;7.10;99.90
32446;DHT22;18899;50.748;7.102;2023-03-05T07:58:31;7.10;99.90
32446;DHT22;18899;50.748;7.102;2023-03-05T08:00:56;7.20;99.90
32446;DHT22;18899;50.748;7.102;2023-03-05T08:03:22;7.30;99.90
32446;DHT22;18899;50.748;7.102;2023-03-05T08:05:48;7.50;99.90
32446;DHT22;18899;50.748;7.102;2023-03-05T08:08:13;7.60;99.90
32446;DHT22;18899;50.748;7.102;2023-03-05T08:10:39;7.60;99.90
32446;DHT22;18899;50.748;7.102;2023-03-05T08:13:05;7.60;99.90
32446;DHT22;18899;50.748;7.102;2023-03-05T08:15:30;7.70;99.90
32446;DHT22;18899;50.748;7.102;2023-03-05T08:17:57;7.50;99.90
32446;DHT22;18899;50.748;7.102;2023-03-05T08:20:23;7.60;99.90
32446;DHT22;18899;50.748;7.102;2023-03-05T08:22:49;7.80;99.90
32446;DHT22;18899;50.748;7.102;2023-03-05T08:25:14;8.00;99.90
32446;DHT22;18899;50.748;7.102;2023-03-05T08:27:45;8.10;99.90
32446;DHT22;18899;50.748;7.102;2023-03-05T08:30:13;8.30;99.90
32446;DHT22;18899;50.748;7.102;2023-03-05T08:32:40;8.10;99.90
32446;DHT22;18899;50.748;7.102;2023-03-05T08:35:06;7.70;99.90
32446;DHT22;18899;50.748;7.102;2023-03-05T08:37:34;7.50;99.90
32446;DHT22;18899;50.748;7.102;2023-03-05T08:39:59;7.30;99.90
32446;DHT22;18899;50.748;7.102;2023-03-05T08:42:25;7.10;99.90
32446;DHT22;18899;50.748;7.102;2023-03-05T08:44:50;7.20;99.90
32446;DHT22;18899;50.748;7.102;2023-03-05T08:47:16;7.40;99.90
32446;DHT22;18899;50.748;7.102;2023-03-05T08:49:43;7.60;99.90
32446;DHT22;18899;50.748;7.102;2023-03-05T08:52:09;7.70;99.90
32446;DHT22;18899;50.748;7.102;2023-03-05T08:54:36;7.80;99.90
32446;DHT22;18899;50.748;7.102;2023-03-05T08:57:02;8.00;99.90
32446;DHT22;18899;50.748;7.102;2023-03-05T08:59:27;8.20;99.90
32446;DHT22;18899;50.748;7.102;2023-03-05T09:01:53;8.10;99.90
32446;DHT22;18899;50.748;7.102;2023-03-05T09:04:19;8.00;99.90
32446;DHT22;18899;50.748;7.102;2023-03-05T09:06:44;8.00;99.90
32446;DHT22;18899;50.748;7.102;2023-03-05T09:09:10;8.10;99.90
32446;DHT22;18899;50.748;7.102;2023-03-05T09:11:36;7.80;99.90
32446;DHT22;18899;50.748;7.102;2023-03-05T09:14:03;7.40;99.90
32446;DHT22;18899;50.748;7.102;2023-03-05T09:16:29;7.10;99.90
32446;DHT22;18899;50.748;7.102;2023-03-05T09:18:54;7.20;99.90
32446;DHT22;18899;50.748;7.102;2023-03-05T09:21:20;7.40;99.90
32446;DHT22;18899;50.748;7.102;2023-03-05T09:23:45;7.50;99.90
32446;DHT22;18899;50.748;7.102;2023-03-05T09:26:12;7.40;99.90
32446;DHT22;18899;50.748;7.102;2023-03-05T09:28:40;7.30;99.90
32446;DHT22;18899;50.748;7.102;2023-03-05T09:31:08;7.60;99.90
32446;DHT22;18899;50.748;7.102;2023-03-05T09:33:35;7.80;99.90
32446;DHT22;18899;50.748;7.102;2023-03-05T09:36:01;8.00;99.90
32446;DHT22;18899;50.748;7.102;2023-03-05T09:38:28;8.00;99.90
32446;DHT22;18899;50.748;7.102;2023-03-05T09:40:58;8.10;99.90
32446;DHT22;18899;50.748;7.102;2023-03-05T09:46:17;7.70;99.90
32446;DHT22;18899;50.748;7.102;2023-03-05T09:48:52;7.70;99.90
32446;DHT22;18899;50.748;7.102;2023-03-05T09:51:28;7.80;99.90
32446;DHT22;18899;50.748;7.102;2023-03-05T09:54:22;7.70;99.90
32446;DHT22;18899;50.748;7.102;2023-03-05T09:56:52;7.60;99.90
32446;DHT22;18899;50.748;7.102;2023-03-05T09:59:50;7.30;99.90
32446;DHT22;18899;50.748;7.102;2023-03-05T10:02:22;7.60;99.90
32446;DHT22;18899;50.748;7.102;2023-03-05T10:04:59;7.70;99.90
32446;DHT22;18899;50.748;7.102;2023-03-05T10:07:31;7.50;99.90
32446;DHT22;18899;50.748;7.102;2023-03-05T10:09:59;7.40;99.90
32446;DHT22;18899;50.748;7.102;2023-03-05T10:15:30;7.80;99.90
32446;DHT22;18899;50.748;7.102;2023-03-05T10:18:21;8.20;99.90
32446;DHT22;18899;50.748;7.102;2023-03-05T10:21:06;8.70;99.90
32446;DHT22;18899;50.748;7.102;2023-03-05T10:23:50;9.00;99.90
32446;DHT22;18899;50.748;7.102;2023-03-05T10:40:38;9.10;99.90
32446;DHT22;18899;50.748;7.102;2023-03-05T10:45:53;8.60;99.90
32446;DHT22;18899;50.748;7.102;2023-03-05T10:48:44;8.10;99.90
32446;DHT22;18899;50.748;7.102;2023-03-05T10:51:12;7.90;99.90
32446;DHT22;18899;50.748;7.102;2023-03-05T10:53:51;7.90;99.90
32446;DHT22;18899;50.748;7.102;2023-03-05T10:56:21;7.90;99.90
32446;DHT22;18899;50.748;7.102;2023-03-05T10:58:48;8.10;99.90
32446;DHT22;18899;50.748;7.102;2023-03-05T11:04:00;8.00;99.90
32446;DHT22;18899;50.748;7.102;2023-03-05T11:08:59;8.00;99.90
32446;DHT22;18899;50.748;7.102;2023-03-05T11:11:38;8.20;99.90
32446;DHT22;18899;50.748;7.102;2023-03-05T11:14:04;8.00;99.90
32446;DHT22;18899;50.748;7.102;2023-03-05T11:16:32;7.90;99.90
32446;DHT22;18899;50.748;7.102;2023-03-05T11:19:20;7.60;99.90
32446;DHT22;18899;50.748;7.102;2023-03-05T11:24:38;8.00;99.90
32446;DHT22;18899;50.748;7.102;2023-03-05T11:27:22;8.10;99.90
32446;DHT22;18899;50.748;7.102;2023-03-05T11:29:49;7.90;99.90
32446;DHT22;18899;50.748;7.102;2023-03-05T11:32:23;8.10;99.90
32446;DHT22;18899;50.748;7.102;2023-03-05T11:34:50;7.90;99.90
32446;DHT22;18899;50.748;7.102;2023-03-05T11:37:28;7.80;99.90
32446;DHT22;18899;50.748;7.102;2023-03-05T11:42:30;7.90;99.90
32446;DHT22;18899;50.748;7.102;2023-03-05T11:44:56;7.70;99.90
32446;DHT22;18899;50.748;7.102;2023-03-05T11:47:41;7.60;99.90
32446;DHT22;18899;50.748;7.102;2023-03-05T11:52:46;7.60;99.90
32446;DHT22;18899;50.748;7.102;2023-03-05T12:00:36;7.70;99.90
32446;DHT22;18899;50.748;7.102;2023-03-05T12:03:06;7.80;99.90
32446;DHT22;18899;50.748;7.102;2023-03-05T12:05:33;7.80;99.90
32446;DHT22;18899;50.748;7.102;2023-03-05T12:08:01;7.90;99.90
32446;DHT22;18899;50.748;7.102;2023-03-05T12:10:27;8.10;99.90
32446;DHT22;18899;50.748;7.102;2023-03-05T12:15:46;8.40;99.90
32446;DHT22;18899;50.748;7.102;2023-03-05T12:18:40;8.60;99.90
32446;DHT22;18899;50.748;7.102;2023-03-05T12:21:40;8.80;99.90
32446;DHT22;18899;50.748;7.102;2023-03-05T12:29:46;9.00;99.90
32446;DHT22;18899;50.748;7.102;2023-03-05T12:35:22;9.30;99.90
32446;DHT22;18899;50.748;7.102;2023-03-05T12:40:24;9.00;99.90
32446;DHT22;18899;50.748;7.102;2023-03-05T12:52:56;8.50;99.90
32446;DHT22;18899;50.748;7.102;2023-03-05T12:55:33;8.70;99.90
32446;DHT22;18899;50.748;7.102;2023-03-05T12:58:10;8.70;99.90
32446;DHT22;18899;50.748;7.102;2023-03-05T13:00:43;8.70;99.90
32446;DHT22;18899;50.748;7.102;2023-03-05T13:03:17;8.60;99.90
32446;DHT22;18899;50.748;7.102;2023-03-05T13:05:51;8.90;99.90
32446;DHT22;18899;50.748;7.102;2023-03-05T13:08:24;8.50;99.90
32446;DHT22;18899;50.748;7.102;2023-03-05T13:10:59;8.50;99.90
32446;DHT22;18899;50.748;7.102;2023-03-05T13:13:26;8.10;99.90
32446;DHT22;18899;50.748;7.102;2023-03-05T13:15:52;8.20;99.90
32446;DHT22;18899;50.748;7.102;2023-03-05T13:18:21;8.00;99.90
32446;DHT22;18899;50.748;7.102;2023-03-05T13:20:47;8.00;99.90
32446;DHT22;18899;50.748;7.102;2023-03-05T13:26:09;8.10;99.90
32446;DHT22;18899;50.748;7.102;2023-03-05T13:28:36;8.10;99.90
32446;DHT22;18899;50.748;7.102;2023-03-05T13:31:15;8.40;99.90
32446;DHT22;18899;50.748;7.102;2023-03-05T13:33:49;8.80;99.90
32446;DHT22;18899;50.748;7.102;2023-03-05T13:36:17;8.50;99.90
32446;DHT22;18899;50.748;7.102;2023-03-05T13:38:44;8.40;99.90
32446;DHT22;18899;50.748;7.102;2023-03-05T13:43:59;8.10;99.90
32446;DHT22;18899;50.748;7.102;2023-03-05T13:46:38;8.00;99.90
32446;DHT22;18899;50.748;7.102;2023-03-05T13:51:50;8.40;99.90
32446;DHT22;18899;50.748;7.102;2023-03-05T13:54:17;8.30;99.90
32446;DHT22;18899;50.748;7.102;2023-03-05T13:57:25;8.20;99.90
32446;DHT22;18899;50.748;7.102;2023-03-05T13:59:56;8.00;99.90
32446;DHT22;18899;50.748;7.102;2023-03-05T14:02:22;8.20;99.90
32446;DHT22;18899;50.748;7.102;2023-03-05T14:04:48;8.20;99.90
32446;DHT22;18899;50.748;7.102;2023-03-05T14:09:48;7.80;99.90
32446;DHT22;18899;50.748;7.102;2023-03-05T14:12:39;8.00;99.90
32446;DHT22;18899;50.748;7.102;2023-03-05T14:15:25;8.00;99.90
32446;DHT22;18899;50.748;7.102;2023-03-05T14:17:51;8.20;99.90
32446;DHT22;18899;50.748;7.102;2023-03-05T14:20:23;8.10;99.90
32446;DHT22;18899;50.748;7.102;2023-03-05T14:22:57;8.10;99.90
32446;DHT22;18899;50.748;7.102;2023-03-05T14:27:55;8.10;99.90
32446;DHT22;18899;50.748;7.102;2023-03-05T14:30:22;8.10;99.90
32446;DHT22;18899;50.748;7.102;2023-03-05T14:32:49;8.20;99.90
32446;DHT22;18899;50.748;7.102;2023-03-05T14:35:19;8.00;99.90
32446;DHT22;18899;50.748;7.102;2023-03-05T14:37:48;8.10;99.90
32446;DHT22;18899;50.748;7.102;2023-03-05T14:42:52;7.90;99.90
32446;DHT22;18899;50.748;7.102;2023-03-05T14:48:18;7.80;99.90
32446;DHT22;18899;50.748;7.102;2023-03-05T14:50:47;7.90;99.90
32446;DHT22;18899;50.748;7.102;2023-03-05T14:55:47;7.80;99.90
32446;DHT22;18899;50.748;7.102;2023-03-05T14:58:17;7.60;99.90
32446;DHT22;18899;50.748;7.102;2023-03-05T15:00:44;7.50;99.90
32446;DHT22;18899;50.748;7.102;2023-03-05T15:03:11;7.40;99.90
32446;DHT22;18899;50.748;7.102;2023-03-05T15:05:37;7.40;99.90
32446;DHT22;18899;50.748;7.102;2023-03-05T15:08:03;7.30;99.90
32446;DHT22;18899;50.748;7.102;2023-03-05T15:10:29;7.10;99.90
32446;DHT22;18899;50.748;7.102;2023-03-05T15:12:55;7.10;99.90
32446;DHT22;18899;50.748;7.102;2023-03-05T15:15:21;7.20;99.90
32446;DHT22;18899;50.748;7.102;2023-03-05T15:17:48;7.30;99.90
32446;DHT22;18899;50.748;7.102;2023-03-05T15:20:23;7.30;99.90
32446;DHT22;18899;50.748;7.102;2023-03-05T15:22:49;7.20;99.90
32446;DHT22;18899;50.748;7.102;2023-03-05T15:25:15;7.10;99.90
32446;DHT22;18899;50.748;7.102;2023-03-05T15:27:41;7.20;99.90
32446;DHT22;18899;50.748;7.102;2023-03-05T15:30:08;7.10;99.90
32446;DHT22;18899;50.748;7.102;2023-03-05T15:32:33;7.10;99.90
32446;DHT22;18899;50.748;7.102;2023-03-05T15:34:59;7.10;99.90
32446;DHT22;18899;50.748;7.102;2023-03-05T15:37:25;7.10;99.90
32446;DHT22;18899;50.748;7.102;2023-03-05T15:39:51;7.00;99.90
32446;DHT22;18899;50.748;7.102;2023-03-05T15:42:18;7.00;99.90
32446;DHT22;18899;50.748;7.102;2023-03-05T15:44:43;7.10;99.90
32446;DHT22;18899;50.748;7.102;2023-03-05T15:47:09;7.10;99.90
32446;DHT22;18899;50.748;7.102;2023-03-05T15:49:35;7.00;99.90
32446;DHT22;18899;50.748;7.102;2023-03-05T15:52:00;6.80;99.90
32446;DHT22;18899;50.748;7.102;2023-03-05T15:54:26;6.60;99.90
32446;DHT22;18899;50.748;7.102;2023-03-05T15:56:52;6.50;99.90
32446;DHT22;18899;50.748;7.102;2023-03-05T15:59:18;6.40;99.90
32446;DHT22;18899;50.748;7.102;2023-03-05T16:01:48;6.20;99.90
32446;DHT22;18899;50.748;7.102;2023-03-05T16:04:14;6.20;99.90
32446;DHT22;18899;50.748;7.102;2023-03-05T16:06:40;6.40;99.90
32446;DHT22;18899;50.748;7.102;2023-03-05T16:09:06;6.50;99.90
32446;DHT22;18899;50.748;7.102;2023-03-05T16:11:35;6.40;99.90
32446;DHT22;18899;50.748;7.102;2023-03-05T16:14:05;6.30;99.90
32446;DHT22;18899;50.748;7.102;2023-03-05T16:16:33;6.20;99.90
32446;DHT22;18899;50.748;7.102;2023-03-05T16:19:00;6.30;99.90
32446;DHT22;18899;50.748;7.102;2023-03-05T16:21:26;6.20;99.90
32446;DHT22;18899;50.748;7.102;2023-03-05T16:23:52;6.00;99.90
32446;DHT22;18899;50.748;7.102;2023-03-05T16:26:17;5.90;99.90
32446;DHT22;18899;50.748;7.102;2023-03-05T16:28:43;5.90;99.90
32446;DHT22;18899;50.748;7.102;2023-03-05T16:31:09;5.80;99.90
32446;DHT22;18899;50.748;7.102;2023-03-05T16:33:34;5.70;99.90
32446;DHT22;18899;50.748;7.102;2023-03-05T16:38:35;5.70;99.90
32446;DHT22;18899;50.748;7.102;2023-03-05T16:41:01;5.70;99.90
32446;DHT22;18899;50.748;7.102;2023-03-05T16:43:26;5.70;99.90
32446;DHT22;18899;50.748;7.102;2023-03-05T16:45:52;5.60;99.90
32446;DHT22;18899;50.748;7.102;2023-03-05T16:48:18;5.70;99.90
32446;DHT22;18899;50.748;7.102;2023-03-05T16:50:43;5.70;99.90
32446;DHT22;18899;50.748;7.102;2023-03-05T16:53:09;5.70;99.90
32446;DHT22;18899;50.748;7.102;2023-03-05T16:55:35;5.70;99.90
32446;DHT22;18899;50.748;7.102;2023-03-05T16:58:02;5.70;99.90
32446;DHT22;18899;50.748;7.102;2023-03-05T17:00:27;5.80;99.90
32446;DHT22;18899;50.748;7.102;2023-03-05T17:02:53;5.90;99.90
32446;DHT22;18899;50.748;7.102;2023-03-05T17:05:18;6.10;99.90
32446;DHT22;18899;50.748;7.102;2023-03-05T17:07:44;6.20;99.90
32446;DHT22;18899;50.748;7.102;2023-03-05T17:10:10;6.20;99.90
32446;DHT22;18899;50.748;7.102;2023-03-05T17:12:37;6.20;99.90
32446;DHT22;18899;50.748;7.102;2023-03-05T17:15:03;6.20;99.90
32446;DHT22;18899;50.748;7.102;2023-03-05T17:17:29;6.30;99.90
32446;DHT22;18899;50.748;7.102;2023-03-05T17:19:56;6.20;99.90
32446;DHT22;18899;50.748;7.102;2023-03-05T17:22:21;6.20;99.90